sensor_id;sensor_type;location;lat;lon;timestamp;pressure;altitude;pressure_sealevel;temperature;humidity
51067;BME280;37112;45.892;-123.962;2024-02-23T01:34:57;102429.07;;;12.67;78.22
51067;BME280;37112;45.892;-123.962;2024-02-23T01:37:11;102433.45;;;12.57;78.11
51067;BME280;37112;45.892;-123.962;2024-02-23T01:39:23;102431.71;;;12.52;78.32
51067;BME280;37112;45.892;-123.962;2024-02-23T01:41:36;102429.91;;;12.49;78.54
51067;BME280;37112;45.892;-123.962;2024-02-23T01:43:49;102430.69;;;12.44;78.52
51067;BME280;37112;45.892;-123.962;2024-02-23T01:46:03;102428.23;;;12.40;78.62
51067;BME280;37112;45.892;-123.962;2024-02-23T01:48:16;102432.22;;;12.34;78.73
51067;BME280;37112;45.892;-123.962;2024-02-23T01:50:29;102429.69;;;12.28;78.68
51067;BME280;37112;45.892;-123.962;2024-02-23T01:52:42;102426.92;;;12.19;78.34
51067;BME280;37112;45.892;-123.962;2024-02-23T01:54:56;102433.47;;;12.08;78.43
51067;BME280;37112;45.892;-123.962;2024-02-23T01:57:11;102440.39;;;12.01;78.59
51067;BME280;37112;45.892;-123.962;2024-02-23T01:59:44;102442.94;;;11.92;78.86
51067;BME280;37112;45.892;-123.962;2024-02-23T02:01:56;102445.71;;;11.86;79.10
51067;BME280;37112;45.892;-123.962;2024-02-23T02:04:09;102445.58;;;11.80;79.21
51067;BME280;37112;45.892;-123.962;2024-02-23T02:06:22;102440.51;;;11.74;79.44
51067;BME280;37112;45.892;-123.962;2024-02-23T02:08:36;102441.56;;;11.66;79.54
51067;BME280;37112;45.892;-123.962;2024-02-23T02:10:49;102442.92;;;11.60;79.77
51067;BME280;37112;45.892;-123.962;2024-02-23T02:13:06;102441.33;;;11.56;80.18
51067;BME280;37112;45.892;-123.962;2024-02-23T02:15:19;102443.77;;;11.49;80.04
51067;BME280;37112;45.892;-123.962;2024-02-23T02:17:32;102443.88;;;11.42;80.20
51067;BME280;37112;45.892;-123.962;2024-02-23T02:19:50;102446.30;;;11.36;80.43
51067;BME280;37112;45.892;-123.962;2024-02-23T02:22:04;102444.88;;;11.27;80.35
51067;BME280;37112;45.892;-123.962;2024-02-23T02:24:18;102442.45;;;11.18;80.42
51067;BME280;37112;45.892;-123.962;2024-02-23T02:26:32;102442.61;;;11.10;80.61
51067;BME280;37112;45.892;-123.962;2024-02-23T02:28:46;102439.27;;;11.00;80.67
51067;BME280;37112;45.892;-123.962;2024-02-23T02:30:59;102437.86;;;10.92;80.89
51067;BME280;37112;45.892;-123.962;2024-02-23T02:33:12;102439.06;;;10.84;81.19
51067;BME280;37112;45.892;-123.962;2024-02-23T02:35:25;102438.61;;;10.78;81.45
51067;BME280;37112;45.892;-123.962;2024-02-23T02:37:39;102437.98;;;10.71;81.60
51067;BME280;37112;45.892;-123.962;2024-02-23T02:39:52;102446.11;;;10.68;82.04
51067;BME280;37112;45.892;-123.962;2024-02-23T02:42:05;102447.36;;;10.64;82.20
51067;BME280;37112;45.892;-123.962;2024-02-23T02:44:19;102446.38;;;10.57;82.36
51067;BME280;37112;45.892;-123.962;2024-02-23T02:46:32;102446.78;;;10.51;82.34
51067;BME280;37112;45.892;-123.962;2024-02-23T02:48:45;102446.64;;;10.46;82.48
51067;BME280;37112;45.892;-123.962;2024-02-23T02:50:58;102447.37;;;10.41;82.64
51067;BME280;37112;45.892;-123.962;2024-02-23T02:53:11;102453.59;;;10.36;82.78
51067;BME280;37112;45.892;-123.962;2024-02-23T02:55:24;102454.79;;;10.28;82.75
51067;BME280;37112;45.892;-123.962;2024-02-23T02:57:38;102455.20;;;10.22;82.84
51067;BME280;37112;45.892;-123.962;2024-02-23T02:59:51;102460.28;;;10.14;82.98
51067;BME280;37112;45.892;-123.962;2024-02-23T03:02:04;102459.72;;;10.10;83.19
51067;BME280;37112;45.892;-123.962;2024-02-23T03:04:17;102459.59;;;10.04;83.29
51067;BME280;37112;45.892;-123.962;2024-02-23T03:06:30;102459.84;;;9.97;83.32
51067;BME280;37112;45.892;-123.962;2024-02-23T03:08:46;102459.04;;;9.91;83.45
51067;BME280;37112;45.892;-123.962;2024-02-23T03:11:01;102462.83;;;9.84;83.64
51067;BME280;37112;45.892;-123.962;2024-02-23T03:13:14;102461.47;;;9.77;83.73
51067;BME280;37112;45.892;-123.962;2024-02-23T03:15:27;102458.64;;;9.72;84.03
51067;BME280;37112;45.892;-123.962;2024-02-23T03:17:40;102453.46;;;9.68;84.11
51067;BME280;37112;45.892;-123.962;2024-02-23T03:19:54;102446.59;;;9.62;84.06
51067;BME280;37112;45.892;-123.962;2024-02-23T03:22:09;102445.36;;;9.57;84.12
51067;BME280;37112;45.892;-123.962;2024-02-23T03:24:23;102445.84;;;9.53;84.37
51067;BME280;37112;45.892;-123.962;2024-02-23T03:26:36;102448.59;;;9.51;84.50
51067;BME280;37112;45.892;-123.962;2024-02-23T03:28:49;102446.72;;;9.48;84.86
51067;BME280;37112;45.892;-123.962;2024-02-23T03:31:02;102445.04;;;9.46;84.96
51067;BME280;37112;45.892;-123.962;2024-02-23T03:33:15;102444.75;;;9.44;85.11
51067;BME280;37112;45.892;-123.962;2024-02-23T03:38:01;102449.13;;;9.46;85.39
51067;BME280;37112;45.892;-123.962;2024-02-23T03:40:14;102448.41;;;9.41;85.46
51067;BME280;37112;45.892;-123.962;2024-02-23T03:42:29;102447.27;;;9.37;85.61
51067;BME280;37112;45.892;-123.962;2024-02-23T03:44:48;102450.92;;;9.35;85.60
51067;BME280;37112;45.892;-123.962;2024-02-23T03:47:01;102450.16;;;9.31;85.36
51067;BME280;37112;45.892;-123.962;2024-02-23T03:49:14;102449.41;;;9.27;85.34
51067;BME280;37112;45.892;-123.962;2024-02-23T03:51:28;102449.69;;;9.25;85.46
51067;BME280;37112;45.892;-123.962;2024-02-23T03:53:41;102448.02;;;9.21;85.64
51067;BME280;37112;45.892;-123.962;2024-02-23T03:55:54;102449.93;;;9.17;85.47
51067;BME280;37112;45.892;-123.962;2024-02-23T03:58:07;102449.45;;;9.11;85.42
51067;BME280;37112;45.892;-123.962;2024-02-23T04:00:20;102451.77;;;9.05;85.46
51067;BME280;37112;45.892;-123.962;2024-02-23T04:02:33;102450.42;;;8.98;85.53
51067;BME280;37112;45.892;-123.962;2024-02-23T04:04:47;102451.30;;;8.92;85.51
51067;BME280;37112;45.892;-123.962;2024-02-23T04:07:00;102453.09;;;8.86;85.60
51067;BME280;37112;45.892;-123.962;2024-02-23T04:09:13;102451.69;;;8.81;85.67
51067;BME280;37112;45.892;-123.962;2024-02-23T04:11:26;102452.38;;;8.76;85.70
51067;BME280;37112;45.892;-123.962;2024-02-23T04:13:40;102452.20;;;8.70;85.89
51067;BME280;37112;45.892;-123.962;2024-02-23T04:15:53;102453.06;;;8.65;85.78
51067;BME280;37112;45.892;-123.962;2024-02-23T04:18:08;102456.59;;;8.60;85.74
51067;BME280;37112;45.892;-123.962;2024-02-23T04:20:21;102456.71;;;8.56;85.99
51067;BME280;37112;45.892;-123.962;2024-02-23T04:22:35;102459.73;;;8.50;85.86
51067;BME280;37112;45.892;-123.962;2024-02-23T04:24:48;102462.58;;;8.44;86.02
51067;BME280;37112;45.892;-123.962;2024-02-23T04:26:58;102461.84;;;8.39;86.27
51067;BME280;37112;45.892;-123.962;2024-02-23T04:29:11;102468.02;;;8.33;86.47
51067;BME280;37112;45.892;-123.962;2024-02-23T04:31:23;102471.65;;;8.29;86.68
51067;BME280;37112;45.892;-123.962;2024-02-23T04:33:36;102477.83;;;8.25;86.69
51067;BME280;37112;45.892;-123.962;2024-02-23T04:35:49;102480.80;;;8.20;86.86
51067;BME280;37112;45.892;-123.962;2024-02-23T04:38:02;102479.70;;;8.16;87.00
51067;BME280;37112;45.892;-123.962;2024-02-23T04:40:15;102478.56;;;8.12;87.24
51067;BME280;37112;45.892;-123.962;2024-02-23T04:42:28;102476.68;;;8.09;87.34
51067;BME280;37112;45.892;-123.962;2024-02-23T04:44:43;102476.83;;;8.04;87.50
51067;BME280;37112;45.892;-123.962;2024-02-23T04:46:56;102475.36;;;8.00;87.54
51067;BME280;37112;45.892;-123.962;2024-02-23T04:49:08;102471.23;;;7.96;87.71
51067;BME280;37112;45.892;-123.962;2024-02-23T04:51:24;102471.69;;;7.92;87.93
51067;BME280;37112;45.892;-123.962;2024-02-23T04:53:40;102470.30;;;7.91;88.21
51067;BME280;37112;45.892;-123.962;2024-02-23T04:55:53;102470.17;;;7.90;88.42
51067;BME280;37112;45.892;-123.962;2024-02-23T04:58:06;102474.10;;;7.89;88.58
51067;BME280;37112;45.892;-123.962;2024-02-23T05:00:20;102476.98;;;7.87;88.69
51067;BME280;37112;45.892;-123.962;2024-02-23T05:02:33;102477.70;;;7.87;88.88
51067;BME280;37112;45.892;-123.962;2024-02-23T05:04:46;102482.13;;;7.87;89.02
51067;BME280;37112;45.892;-123.962;2024-02-23T05:06:59;102482.13;;;7.86;89.16
51067;BME280;37112;45.892;-123.962;2024-02-23T05:09:12;102481.10;;;7.85;89.23
51067;BME280;37112;45.892;-123.962;2024-02-23T05:11:25;102476.16;;;7.84;89.47
51067;BME280;37112;45.892;-123.962;2024-02-23T05:13:38;102479.55;;;7.83;89.63
51067;BME280;37112;45.892;-123.962;2024-02-23T05:15:54;102478.55;;;7.81;89.70
51067;BME280;37112;45.892;-123.962;2024-02-23T05:18:08;102481.42;;;7.80;89.78
51067;BME280;37112;45.892;-123.962;2024-02-23T05:20:20;102482.16;;;7.78;89.92
51067;BME280;37112;45.892;-123.962;2024-02-23T05:22:33;102483.40;;;7.79;89.91
51067;BME280;37112;45.892;-123.962;2024-02-23T05:24:43;102483.23;;;7.78;90.05
51067;BME280;37112;45.892;-123.962;2024-02-23T05:26:56;102479.92;;;7.76;90.01
51067;BME280;37112;45.892;-123.962;2024-02-23T05:29:12;102482.96;;;7.75;90.18
51067;BME280;37112;45.892;-123.962;2024-02-23T05:31:46;102489.19;;;7.74;90.25
51067;BME280;37112;45.892;-123.962;2024-02-23T05:34:00;102492.24;;;7.72;90.34
51067;BME280;37112;45.892;-123.962;2024-02-23T05:36:13;102496.63;;;7.73;90.63
51067;BME280;37112;45.892;-123.962;2024-02-23T05:38:27;102495.74;;;7.73;90.65
51067;BME280;37112;45.892;-123.962;2024-02-23T05:40:41;102501.73;;;7.74;90.64
51067;BME280;37112;45.892;-123.962;2024-02-23T05:42:55;102508.43;;;7.75;90.69
51067;BME280;37112;45.892;-123.962;2024-02-23T05:45:09;102508.79;;;7.75;90.72
51067;BME280;37112;45.892;-123.962;2024-02-23T05:47:22;102507.02;;;7.75;90.77
51067;BME280;37112;45.892;-123.962;2024-02-23T05:49:35;102512.45;;;7.76;90.94
51067;BME280;37112;45.892;-123.962;2024-02-23T05:51:48;102518.25;;;7.77;91.03
51067;BME280;37112;45.892;-123.962;2024-02-23T05:54:01;102525.14;;;7.78;91.08
51067;BME280;37112;45.892;-123.962;2024-02-23T05:56:14;102532.22;;;7.77;90.96
51067;BME280;37112;45.892;-123.962;2024-02-23T05:58:27;102530.86;;;7.76;90.84
51067;BME280;37112;45.892;-123.962;2024-02-23T06:00:40;102526.84;;;7.74;90.82
51067;BME280;37112;45.892;-123.962;2024-02-23T06:02:54;102530.78;;;7.73;90.80
51067;BME280;37112;45.892;-123.962;2024-02-23T06:05:07;102528.73;;;7.69;90.82
51067;BME280;37112;45.892;-123.962;2024-02-23T06:07:21;102528.79;;;7.67;90.85
51067;BME280;37112;45.892;-123.962;2024-02-23T06:09:39;102533.99;;;7.65;90.83
51067;BME280;37112;45.892;-123.962;2024-02-23T06:11:52;102535.11;;;7.63;90.96
51067;BME280;37112;45.892;-123.962;2024-02-23T06:14:05;102538.30;;;7.62;91.05
51067;BME280;37112;45.892;-123.962;2024-02-23T06:16:18;102538.48;;;7.62;91.16
51067;BME280;37112;45.892;-123.962;2024-02-23T06:18:31;102530.34;;;7.62;91.30
51067;BME280;37112;45.892;-123.962;2024-02-23T06:20:44;102522.92;;;7.62;91.44
51067;BME280;37112;45.892;-123.962;2024-02-23T06:22:57;102517.14;;;7.60;91.43
51067;BME280;37112;45.892;-123.962;2024-02-23T06:25:10;102510.68;;;7.57;91.34
51067;BME280;37112;45.892;-123.962;2024-02-23T06:27:23;102508.98;;;7.54;91.22
51067;BME280;37112;45.892;-123.962;2024-02-23T06:29:38;102511.50;;;7.52;91.37
51067;BME280;37112;45.892;-123.962;2024-02-23T06:31:51;102510.66;;;7.51;91.53
51067;BME280;37112;45.892;-123.962;2024-02-23T06:34:04;102511.05;;;7.50;91.55
51067;BME280;37112;45.892;-123.962;2024-02-23T06:36:18;102511.05;;;7.50;91.58
51067;BME280;37112;45.892;-123.962;2024-02-23T06:38:31;102515.32;;;7.49;91.52
51067;BME280;37112;45.892;-123.962;2024-02-23T06:40:44;102518.14;;;7.49;91.56
51067;BME280;37112;45.892;-123.962;2024-02-23T06:43:00;102521.31;;;7.49;91.72
51067;BME280;37112;45.892;-123.962;2024-02-23T06:45:14;102522.95;;;7.48;91.49
51067;BME280;37112;45.892;-123.962;2024-02-23T06:47:27;102521.02;;;7.46;91.41
51067;BME280;37112;45.892;-123.962;2024-02-23T06:49:43;102519.64;;;7.45;91.35
51067;BME280;37112;45.892;-123.962;2024-02-23T06:51:56;102520.02;;;7.44;91.41
51067;BME280;37112;45.892;-123.962;2024-02-23T06:54:09;102521.63;;;7.44;91.48
51067;BME280;37112;45.892;-123.962;2024-02-23T06:56:22;102528.36;;;7.43;91.59
51067;BME280;37112;45.892;-123.962;2024-02-23T06:58:34;102531.35;;;7.43;91.59
51067;BME280;37112;45.892;-123.962;2024-02-23T07:00:48;102535.44;;;7.43;91.57
51067;BME280;37112;45.892;-123.962;2024-02-23T07:03:01;102533.95;;;7.39;91.50
51067;BME280;37112;45.892;-123.962;2024-02-23T07:05:14;102530.59;;;7.39;91.89
51067;BME280;37112;45.892;-123.962;2024-02-23T07:07:27;102527.05;;;7.39;92.19
51067;BME280;37112;45.892;-123.962;2024-02-23T07:09:40;102520.52;;;7.38;92.22
51067;BME280;37112;45.892;-123.962;2024-02-23T07:11:55;102525.33;;;7.37;92.08
51067;BME280;37112;45.892;-123.962;2024-02-23T07:14:08;102527.89;;;7.34;91.88
51067;BME280;37112;45.892;-123.962;2024-02-23T07:16:23;102531.15;;;7.31;91.72
51067;BME280;37112;45.892;-123.962;2024-02-23T07:18:37;102526.65;;;7.27;91.53
51067;BME280;37112;45.892;-123.962;2024-02-23T07:20:50;102527.62;;;7.24;91.61
51067;BME280;37112;45.892;-123.962;2024-02-23T07:23:03;102530.14;;;7.21;91.63
51067;BME280;37112;45.892;-123.962;2024-02-23T07:25:18;102531.09;;;7.19;91.65
51067;BME280;37112;45.892;-123.962;2024-02-23T07:27:32;102535.52;;;7.19;91.70
51067;BME280;37112;45.892;-123.962;2024-02-23T07:29:45;102536.81;;;7.16;91.61
51067;BME280;37112;45.892;-123.962;2024-02-23T07:31:59;102537.44;;;7.12;91.45
51067;BME280;37112;45.892;-123.962;2024-02-23T07:34:13;102540.55;;;7.08;91.65
51067;BME280;37112;45.892;-123.962;2024-02-23T07:36:26;102542.64;;;7.02;91.68
51067;BME280;37112;45.892;-123.962;2024-02-23T07:38:40;102540.80;;;6.97;91.69
51067;BME280;37112;45.892;-123.962;2024-02-23T07:40:54;102536.32;;;6.92;91.84
51067;BME280;37112;45.892;-123.962;2024-02-23T07:43:08;102536.19;;;6.90;92.25
51067;BME280;37112;45.892;-123.962;2024-02-23T07:45:21;102533.77;;;6.88;92.74
51067;BME280;37112;45.892;-123.962;2024-02-23T07:47:34;102537.09;;;6.89;93.02
51067;BME280;37112;45.892;-123.962;2024-02-23T07:49:48;102539.35;;;6.90;93.07
51067;BME280;37112;45.892;-123.962;2024-02-23T07:52:02;102537.41;;;6.90;92.98
51067;BME280;37112;45.892;-123.962;2024-02-23T07:54:14;102531.97;;;6.89;92.96
51067;BME280;37112;45.892;-123.962;2024-02-23T07:56:27;102527.92;;;6.88;93.05
51067;BME280;37112;45.892;-123.962;2024-02-23T07:58:41;102527.42;;;6.87;93.14
51067;BME280;37112;45.892;-123.962;2024-02-23T08:00:54;102524.60;;;6.88;93.27
51067;BME280;37112;45.892;-123.962;2024-02-23T08:03:07;102527.75;;;6.88;93.46
51067;BME280;37112;45.892;-123.962;2024-02-23T08:05:21;102530.91;;;6.89;93.42
51067;BME280;37112;45.892;-123.962;2024-02-23T08:07:34;102528.41;;;6.91;93.51
51067;BME280;37112;45.892;-123.962;2024-02-23T08:09:46;102528.56;;;6.91;93.63
51067;BME280;37112;45.892;-123.962;2024-02-23T08:11:59;102526.95;;;6.92;93.71
51067;BME280;37112;45.892;-123.962;2024-02-23T08:14:12;102528.19;;;6.93;93.82
51067;BME280;37112;45.892;-123.962;2024-02-23T08:16:25;102522.52;;;6.93;93.72
51067;BME280;37112;45.892;-123.962;2024-02-23T08:18:35;102519.52;;;6.92;93.75
51067;BME280;37112;45.892;-123.962;2024-02-23T08:20:49;102525.03;;;6.91;93.73
51067;BME280;37112;45.892;-123.962;2024-02-23T08:23:03;102521.56;;;6.89;93.56
51067;BME280;37112;45.892;-123.962;2024-02-23T08:25:15;102521.77;;;6.88;93.64
51067;BME280;37112;45.892;-123.962;2024-02-23T08:27:28;102526.70;;;6.88;93.70
51067;BME280;37112;45.892;-123.962;2024-02-23T08:29:42;102523.55;;;6.87;93.69
51067;BME280;37112;45.892;-123.962;2024-02-23T08:31:55;102520.73;;;6.87;93.66
51067;BME280;37112;45.892;-123.962;2024-02-23T08:34:09;102518.83;;;6.85;93.61
51067;BME280;37112;45.892;-123.962;2024-02-23T08:36:22;102520.60;;;6.85;93.63
51067;BME280;37112;45.892;-123.962;2024-02-23T08:38:34;102520.80;;;6.84;93.59
51067;BME280;37112;45.892;-123.962;2024-02-23T08:40:47;102525.73;;;6.84;93.67
51067;BME280;37112;45.892;-123.962;2024-02-23T08:43:01;102528.08;;;6.82;93.58
51067;BME280;37112;45.892;-123.962;2024-02-23T08:45:14;102527.20;;;6.81;93.67
51067;BME280;37112;45.892;-123.962;2024-02-23T08:47:27;102526.33;;;6.81;93.77
51067;BME280;37112;45.892;-123.962;2024-02-23T08:49:42;102526.50;;;6.81;93.81
51067;BME280;37112;45.892;-123.962;2024-02-23T08:51:56;102523.52;;;6.81;93.93
51067;BME280;37112;45.892;-123.962;2024-02-23T08:54:09;102524.55;;;6.82;94.05
51067;BME280;37112;45.892;-123.962;2024-02-23T08:56:22;102521.36;;;6.82;94.13
51067;BME280;37112;45.892;-123.962;2024-02-23T08:58:35;102521.52;;;6.83;94.25
51067;BME280;37112;45.892;-123.962;2024-02-23T09:00:50;102525.94;;;6.83;94.18
51067;BME280;37112;45.892;-123.962;2024-02-23T09:03:03;102526.81;;;6.83;94.24
51067;BME280;37112;45.892;-123.962;2024-02-23T09:05:16;102522.57;;;6.83;94.07
51067;BME280;37112;45.892;-123.962;2024-02-23T09:07:30;102523.96;;;6.84;94.31
51067;BME280;37112;45.892;-123.962;2024-02-23T09:09:43;102523.60;;;6.85;94.44
51067;BME280;37112;45.892;-123.962;2024-02-23T09:11:56;102523.00;;;6.88;94.76
51067;BME280;37112;45.892;-123.962;2024-02-23T09:14:09;102523.52;;;6.89;94.55
51067;BME280;37112;45.892;-123.962;2024-02-23T09:16:23;102517.50;;;6.89;94.33
51067;BME280;37112;45.892;-123.962;2024-02-23T09:18:35;102512.73;;;6.89;94.38
51067;BME280;37112;45.892;-123.962;2024-02-23T09:20:49;102514.17;;;6.88;94.04
51067;BME280;37112;45.892;-123.962;2024-02-23T09:23:02;102511.71;;;6.87;94.18
51067;BME280;37112;45.892;-123.962;2024-02-23T09:25:15;102513.86;;;6.86;94.06
51067;BME280;37112;45.892;-123.962;2024-02-23T09:27:29;102507.64;;;6.87;94.39
51067;BME280;37112;45.892;-123.962;2024-02-23T09:29:42;102511.65;;;6.89;94.60
51067;BME280;37112;45.892;-123.962;2024-02-23T09:31:55;102509.65;;;6.92;94.81
51067;BME280;37112;45.892;-123.962;2024-02-23T09:34:09;102506.11;;;6.93;94.86
51067;BME280;37112;45.892;-123.962;2024-02-23T09:36:22;102504.70;;;6.92;94.38
51067;BME280;37112;45.892;-123.962;2024-02-23T09:38:34;102504.38;;;6.90;94.20
51067;BME280;37112;45.892;-123.962;2024-02-23T09:40:48;102501.54;;;6.91;94.46
51067;BME280;37112;45.892;-123.962;2024-02-23T09:43:02;102506.46;;;6.92;94.67
51067;BME280;37112;45.892;-123.962;2024-02-23T09:45:16;102509.27;;;6.94;94.72
51067;BME280;37112;45.892;-123.962;2024-02-23T09:47:29;102511.40;;;6.93;94.53
51067;BME280;37112;45.892;-123.962;2024-02-23T09:49:43;102512.80;;;6.94;94.66
51067;BME280;37112;45.892;-123.962;2024-02-23T09:52:00;102511.38;;;6.94;94.65
51067;BME280;37112;45.892;-123.962;2024-02-23T09:54:14;102512.80;;;6.94;94.65
51067;BME280;37112;45.892;-123.962;2024-02-23T09:56:29;102510.15;;;6.94;94.63
51067;BME280;37112;45.892;-123.962;2024-02-23T09:58:44;102511.20;;;6.94;94.70
51067;BME280;37112;45.892;-123.962;2024-02-23T10:00:58;102512.42;;;6.95;94.78
51067;BME280;37112;45.892;-123.962;2024-02-23T10:03:12;102512.73;;;6.97;95.05
51067;BME280;37112;45.892;-123.962;2024-02-23T10:05:29;102516.38;;;6.98;94.97
51067;BME280;37112;45.892;-123.962;2024-02-23T10:07:47;102514.08;;;6.99;94.99
51067;BME280;37112;45.892;-123.962;2024-02-23T10:10:06;102518.11;;;6.99;94.99
51067;BME280;37112;45.892;-123.962;2024-02-23T10:12:20;102521.80;;;7.02;95.14
51067;BME280;37112;45.892;-123.962;2024-02-23T10:14:33;102518.73;;;7.04;95.27
51067;BME280;37112;45.892;-123.962;2024-02-23T10:16:46;102518.71;;;7.05;95.13
51067;BME280;37112;45.892;-123.962;2024-02-23T10:18:59;102513.61;;;7.04;94.99
51067;BME280;37112;45.892;-123.962;2024-02-23T10:21:13;102513.43;;;7.04;95.19
51067;BME280;37112;45.892;-123.962;2024-02-23T10:23:26;102511.27;;;7.06;95.30
51067;BME280;37112;45.892;-123.962;2024-02-23T10:25:40;102508.22;;;7.07;95.53
51067;BME280;37112;45.892;-123.962;2024-02-23T10:27:53;102508.92;;;7.08;95.75
51067;BME280;37112;45.892;-123.962;2024-02-23T10:30:07;102507.80;;;7.11;95.91
51067;BME280;37112;45.892;-123.962;2024-02-23T10:32:22;102509.80;;;7.15;96.14
51067;BME280;37112;45.892;-123.962;2024-02-23T10:34:38;102508.85;;;7.18;96.21
51067;BME280;37112;45.892;-123.962;2024-02-23T10:36:54;102508.41;;;7.21;96.23
51067;BME280;37112;45.892;-123.962;2024-02-23T10:39:08;102502.70;;;7.24;96.27
51067;BME280;37112;45.892;-123.962;2024-02-23T10:41:21;102501.52;;;7.28;96.34
51067;BME280;37112;45.892;-123.962;2024-02-23T10:43:39;102503.75;;;7.31;96.31
51067;BME280;37112;45.892;-123.962;2024-02-23T10:45:54;102501.23;;;7.33;96.19
51067;BME280;37112;45.892;-123.962;2024-02-23T10:48:09;102500.11;;;7.35;96.25
51067;BME280;37112;45.892;-123.962;2024-02-23T10:50:22;102501.13;;;7.37;96.19
51067;BME280;37112;45.892;-123.962;2024-02-23T10:52:37;102502.32;;;7.38;96.07
51067;BME280;37112;45.892;-123.962;2024-02-23T10:54:52;102504.80;;;7.38;95.64
51067;BME280;37112;45.892;-123.962;2024-02-23T10:57:05;102504.30;;;7.37;95.65
51067;BME280;37112;45.892;-123.962;2024-02-23T10:59:19;102502.35;;;7.37;95.66
51067;BME280;37112;45.892;-123.962;2024-02-23T11:01:35;102500.41;;;7.37;95.56
51067;BME280;37112;45.892;-123.962;2024-02-23T11:03:49;102496.58;;;7.36;95.52
51067;BME280;37112;45.892;-123.962;2024-02-23T11:06:05;102497.83;;;7.35;95.36
51067;BME280;37112;45.892;-123.962;2024-02-23T11:08:19;102496.80;;;7.34;95.48
51067;BME280;37112;45.892;-123.962;2024-02-23T11:10:32;102495.09;;;7.32;94.97
51067;BME280;37112;45.892;-123.962;2024-02-23T11:12:59;102495.41;;;7.26;94.36
51067;BME280;37112;45.892;-123.962;2024-02-23T11:15:28;102493.41;;;7.21;94.17
51067;BME280;37112;45.892;-123.962;2024-02-23T11:17:49;102494.77;;;7.16;93.91
51067;BME280;37112;45.892;-123.962;2024-02-23T11:20:05;102495.81;;;7.10;93.72
51067;BME280;37112;45.892;-123.962;2024-02-23T11:22:26;102495.05;;;7.05;93.66
51067;BME280;37112;45.892;-123.962;2024-02-23T11:24:48;102496.37;;;7.02;94.00
51067;BME280;37112;45.892;-123.962;2024-02-23T11:27:04;102496.23;;;6.99;93.88
51067;BME280;37112;45.892;-123.962;2024-02-23T11:29:21;102493.43;;;6.98;94.18
51067;BME280;37112;45.892;-123.962;2024-02-23T11:31:34;102492.05;;;6.97;94.16
51067;BME280;37112;45.892;-123.962;2024-02-23T11:33:55;102494.39;;;6.96;94.27
51067;BME280;37112;45.892;-123.962;2024-02-23T11:36:12;102495.46;;;6.95;94.39
51067;BME280;37112;45.892;-123.962;2024-02-23T11:38:26;102500.24;;;6.95;94.57
51067;BME280;37112;45.892;-123.962;2024-02-23T11:40:40;102502.21;;;6.94;94.54
51067;BME280;37112;45.892;-123.962;2024-02-23T11:42:53;102501.38;;;6.91;94.36
51067;BME280;37112;45.892;-123.962;2024-02-23T11:45:08;102501.30;;;6.88;94.54
51067;BME280;37112;45.892;-123.962;2024-02-23T11:47:21;102501.20;;;6.85;94.45
51067;BME280;37112;45.892;-123.962;2024-02-23T11:49:33;102503.01;;;6.82;94.26
51067;BME280;37112;45.892;-123.962;2024-02-23T11:51:46;102502.17;;;6.80;94.57
51067;BME280;37112;45.892;-123.962;2024-02-23T11:53:59;102502.38;;;6.79;94.75
51067;BME280;37112;45.892;-123.962;2024-02-23T11:56:12;102501.34;;;6.79;94.58
51067;BME280;37112;45.892;-123.962;2024-02-23T11:58:25;102498.38;;;6.76;94.45
51067;BME280;37112;45.892;-123.962;2024-02-23T12:00:38;102494.75;;;6.73;94.52
51067;BME280;37112;45.892;-123.962;2024-02-23T12:02:52;102493.75;;;6.71;94.52
51067;BME280;37112;45.892;-123.962;2024-02-23T12:05:05;102495.58;;;6.67;94.43
51067;BME280;37112;45.892;-123.962;2024-02-23T12:07:19;102491.42;;;6.64;94.39
51067;BME280;37112;45.892;-123.962;2024-02-23T12:09:31;102488.98;;;6.63;94.73
51067;BME280;37112;45.892;-123.962;2024-02-23T12:11:45;102490.34;;;6.65;95.21
51067;BME280;37112;45.892;-123.962;2024-02-23T12:13:58;102481.63;;;6.67;95.51
51067;BME280;37112;45.892;-123.962;2024-02-23T12:16:13;102478.42;;;6.68;95.49
51067;BME280;37112;45.892;-123.962;2024-02-23T12:18:26;102475.08;;;6.68;95.30
51067;BME280;37112;45.892;-123.962;2024-02-23T12:20:40;102471.74;;;6.67;95.11
51067;BME280;37112;45.892;-123.962;2024-02-23T12:22:53;102470.52;;;6.67;95.25
51067;BME280;37112;45.892;-123.962;2024-02-23T12:25:08;102467.14;;;6.67;95.41
51067;BME280;37112;45.892;-123.962;2024-02-23T12:27:21;102466.95;;;6.68;95.50
51067;BME280;37112;45.892;-123.962;2024-02-23T12:29:35;102469.77;;;6.69;95.53
51067;BME280;37112;45.892;-123.962;2024-02-23T12:31:48;102467.63;;;6.70;95.66
51067;BME280;37112;45.892;-123.962;2024-02-23T12:34:01;102471.35;;;6.69;95.33
51067;BME280;37112;45.892;-123.962;2024-02-23T12:36:15;102470.70;;;6.67;95.13
51067;BME280;37112;45.892;-123.962;2024-02-23T12:38:28;102470.42;;;6.63;94.87
51067;BME280;37112;45.892;-123.962;2024-02-23T12:40:41;102467.91;;;6.58;94.48
51067;BME280;37112;45.892;-123.962;2024-02-23T12:42:54;102467.85;;;6.53;94.36
51067;BME280;37112;45.892;-123.962;2024-02-23T12:45:08;102468.67;;;6.48;94.21
51067;BME280;37112;45.892;-123.962;2024-02-23T12:47:20;102464.20;;;6.42;94.11
51067;BME280;37112;45.892;-123.962;2024-02-23T12:49:33;102462.39;;;6.36;94.21
51067;BME280;37112;45.892;-123.962;2024-02-23T12:51:46;102460.55;;;6.32;94.22
51067;BME280;37112;45.892;-123.962;2024-02-23T12:53:59;102459.35;;;6.30;94.40
51067;BME280;37112;45.892;-123.962;2024-02-23T12:56:14;102454.13;;;6.27;94.25